createdAt,value
2023-01-29T00:01:48.144Z,3.55
2023-01-29T00:06:51.265Z,3.75
2023-01-29T00:11:53.828Z,3.45
2023-01-29T00:16:56.550Z,2.75
2023-01-29T00:21:59.274Z,4.20
2023-01-29T00:27:01.844Z,3.58
2023-01-29T00:32:04.965Z,4.10
2023-01-29T00:37:09.103Z,3.65
2023-01-29T00:42:31.880Z,4.63
2023-01-29T00:47:34.652Z,4.45
2023-01-29T00:52:37.458Z,3.85
2023-01-29T00:57:40.934Z,4.47
2023-01-29T01:03:03.503Z,3.85
2023-01-29T01:08:26.036Z,3.53
2023-01-29T01:13:28.838Z,3.58
2023-01-29T01:18:32.870Z,3.97
2023-01-29T01:23:35.765Z,4.30
2023-01-29T01:28:39.639Z,3.72
2023-01-29T01:33:42.296Z,4.22
2023-01-29T01:38:44.889Z,3.95
2023-01-29T01:43:58.246Z,3.55
2023-01-29T01:59:34.388Z,3.92
2023-01-29T02:05:07.749Z,3.22
2023-01-29T02:10:15.613Z,3.20
2023-01-29T02:15:18.438Z,3.78
2023-01-29T02:20:26.756Z,3.90
2023-01-29T02:37:12.655Z,4.18
2023-01-29T02:53:00.810Z,3.42
2023-01-29T02:58:12.002Z,4.78
2023-01-29T03:03:38.166Z,3.92
2023-01-29T03:08:45.867Z,3.20
2023-01-29T03:14:02.904Z,4.00
2023-01-29T03:19:12.272Z,4.00
2023-01-29T03:24:40.126Z,3.92
2023-01-29T03:30:04.015Z,3.60
2023-01-29T03:35:37.546Z,3.90
2023-01-29T03:41:07.904Z,3.78
2023-01-29T03:57:15.580Z,3.58
2023-01-29T04:02:28.039Z,4.32
2023-01-29T04:07:36.916Z,3.92
2023-01-29T04:12:48.578Z,3.22
2023-01-29T04:17:53.606Z,3.85
2023-01-29T04:23:08.006Z,2.92
2023-01-29T04:28:21.549Z,3.88
2023-01-29T04:33:41.984Z,3.85
2023-01-29T05:00:17.180Z,4.90
2023-01-29T05:05:21.282Z,3.72
2023-01-29T05:10:25.461Z,2.80
2023-01-29T05:15:37.743Z,3.80
2023-01-29T05:20:43.808Z,3.55
2023-01-29T05:30:53.036Z,5.63
2023-01-29T05:35:56.574Z,5.35
2023-01-29T05:40:59.701Z,5.93
2023-01-29T05:46:02.322Z,4.00
2023-01-29T05:51:05.257Z,5.25
2023-01-29T05:56:07.981Z,5.05
2023-01-29T06:01:14.763Z,4.53
2023-01-29T06:06:17.875Z,5.70
2023-01-29T06:11:20.836Z,5.35
2023-01-29T06:16:23.619Z,3.17
2023-01-29T06:21:26.166Z,3.95
2023-01-29T06:26:28.774Z,3.92
2023-01-29T06:31:39.908Z,3.90
2023-01-29T06:36:43.219Z,3.88
2023-01-29T06:41:46.836Z,3.58
2023-01-29T06:46:49.379Z,4.32
2023-01-29T06:51:51.906Z,4.60
2023-01-29T06:56:54.457Z,5.38
2023-01-29T07:01:57.054Z,5.70
2023-01-29T07:07:00.341Z,4.75
2023-01-29T07:12:04.913Z,4.95
2023-01-29T07:17:07.726Z,4.45
2023-01-29T07:22:10.403Z,4.10
2023-01-29T07:27:13.092Z,3.03
2023-01-29T07:32:15.734Z,4.20
2023-01-29T07:37:18.372Z,3.80
2023-01-29T07:42:20.935Z,3.83
2023-01-29T07:47:23.488Z,5.38
2023-01-29T07:52:26.154Z,4.55
2023-01-29T07:57:28.817Z,3.88
2023-01-29T08:02:31.446Z,4.03
2023-01-29T08:07:34.077Z,4.90
2023-01-29T08:12:37.050Z,4.65
2023-01-29T08:17:56.090Z,5.20
2023-01-29T08:23:04.633Z,5.25
2023-01-29T08:28:07.358Z,9.20
2023-01-29T08:33:10.245Z,6.47
2023-01-29T08:38:12.884Z,7.38
2023-01-29T08:43:16.245Z,8.75
2023-01-29T08:48:18.853Z,6.03
2023-01-29T08:53:24.744Z,7.00
2023-01-29T08:58:27.368Z,7.95
2023-01-29T09:03:29.953Z,7.82
2023-01-29T09:08:32.628Z,6.88
2023-01-29T09:13:35.587Z,7.70
2023-01-29T09:18:39.540Z,5.80
2023-01-29T09:23:44.796Z,5.55
2023-01-29T09:33:49.873Z,6.07
2023-01-29T09:38:52.424Z,7.47
2023-01-29T09:44:00.243Z,8.23
2023-01-29T09:49:13.348Z,8.02
2023-01-29T09:54:27.500Z,8.63
2023-01-29T09:59:33.662Z,10.80
2023-01-29T10:10:21.255Z,7.88
2023-01-29T10:26:13.104Z,9.40
2023-01-29T10:31:25.322Z,9.50
2023-01-29T10:36:35.180Z,7.50
2023-01-29T10:52:54.763Z,7.53
2023-01-29T11:03:29.284Z,7.30
2023-01-29T11:08:43.388Z,7.03
2023-01-29T11:13:53.371Z,6.72
2023-01-29T11:18:59.779Z,6.47
2023-01-29T11:24:07.906Z,7.22
2023-01-29T11:29:34.399Z,7.53
2023-01-29T11:34:57.525Z,8.20
2023-01-29T11:40:00.147Z,9.27
2023-01-29T11:45:02.993Z,7.85
2023-01-29T11:50:06.621Z,8.00
2023-01-29T11:55:49.474Z,7.55
2023-01-29T12:00:55.499Z,7.82
2023-01-29T12:06:04.641Z,7.18
2023-01-29T12:11:35.366Z,7.55
2023-01-29T12:32:55.793Z,7.38
2023-01-29T12:43:18.760Z,7.80
2023-01-29T12:48:27.978Z,7.63
2023-01-29T12:53:55.261Z,7.28
2023-01-29T12:59:01.596Z,8.02
2023-01-29T13:09:28.189Z,7.57
2023-01-29T13:15:10.557Z,9.27
2023-01-29T13:25:28.191Z,8.60
2023-01-29T13:30:33.648Z,8.30
2023-01-29T13:35:40.567Z,10.35
2023-01-29T13:40:50.920Z,10.13
2023-01-29T13:45:55.059Z,10.15
2023-01-29T13:51:02.222Z,11.15
2023-01-29T14:07:43.836Z,8.05
2023-01-29T14:12:47.731Z,7.70
2023-01-29T14:17:57.221Z,7.85
2023-01-29T14:23:04.076Z,9.00
2023-01-29T14:28:16.441Z,8.30
2023-01-29T14:38:52.563Z,7.80
2023-01-29T14:44:35.955Z,8.18
2023-01-29T14:49:59.072Z,8.30
2023-01-29T14:55:07.069Z,8.85
2023-01-29T15:00:27.830Z,8.18
2023-01-29T15:05:37.421Z,8.00
2023-01-29T15:10:46.014Z,7.55
2023-01-29T15:15:55.257Z,8.57
2023-01-29T15:21:12.183Z,8.27
2023-01-29T15:26:26.981Z,7.45
2023-01-29T15:31:30.034Z,7.65
2023-01-29T15:36:33.195Z,7.72
2023-01-29T15:41:39.149Z,7.85
2023-01-29T15:46:48.384Z,7.80
2023-01-29T15:51:57.188Z,8.80
2023-01-29T15:57:00.517Z,8.98
2023-01-29T16:07:28.985Z,9.13
2023-01-29T16:12:33.840Z,9.10
2023-01-29T16:17:41.113Z,9.57
2023-01-29T16:22:46.615Z,9.43
2023-01-29T16:27:50.464Z,9.52
2023-01-29T16:32:53.268Z,9.88
2023-01-29T16:38:02.821Z,8.93
2023-01-29T16:48:37.715Z,10.23
2023-01-29T16:53:52.465Z,11.50
2023-01-29T16:58:55.915Z,14.15
2023-01-29T17:04:07.772Z,16.30
2023-01-29T17:09:22.696Z,16.15
2023-01-29T17:14:26.461Z,13.68
2023-01-29T17:19:30.319Z,13.30
2023-01-29T17:24:32.847Z,12.32
2023-01-29T17:29:36.529Z,11.50
2023-01-29T17:34:39.199Z,12.15
2023-01-29T17:39:42.803Z,11.88
2023-01-29T17:44:46.526Z,11.80
2023-01-29T17:49:49.488Z,11.95
2023-01-29T17:54:52.146Z,12.25
2023-01-29T17:59:57.444Z,11.63
2023-01-29T18:05:00.143Z,13.65
2023-01-29T18:10:03.966Z,12.65
2023-01-29T18:15:07.092Z,13.55
2023-01-29T18:20:22.285Z,12.82
2023-01-29T18:25:25.998Z,10.98
2023-01-29T18:30:29.038Z,12.02
2023-01-29T18:35:31.594Z,13.52
2023-01-29T18:40:34.259Z,12.63
2023-01-29T18:45:36.916Z,12.27
2023-01-29T18:50:39.920Z,13.77
2023-01-29T18:55:42.617Z,14.40
2023-01-29T19:00:45.484Z,13.38
2023-01-29T19:05:48.293Z,12.65
2023-01-29T19:10:50.864Z,12.90
2023-01-29T19:15:53.745Z,11.45
2023-01-29T19:20:56.519Z,12.48
2023-01-29T19:25:59.139Z,14.25
2023-01-29T19:31:02.589Z,13.52
2023-01-29T19:36:06.801Z,11.63
2023-01-29T19:41:09.866Z,12.60
2023-01-29T19:46:12.636Z,12.35
2023-01-29T19:51:16.061Z,13.77
2023-01-29T19:56:20.007Z,14.55
2023-01-29T20:01:24.809Z,13.32
2023-01-29T20:06:31.143Z,13.98
2023-01-29T20:11:35.169Z,16.10
2023-01-29T20:16:38.671Z,15.48
2023-01-29T20:21:45.490Z,14.50
2023-01-29T20:26:48.719Z,12.55
2023-01-29T20:31:51.400Z,13.00
2023-01-29T20:36:53.979Z,13.82
2023-01-29T20:41:57.428Z,13.95
2023-01-29T20:47:02.694Z,13.50
2023-01-29T20:52:06.662Z,11.90
2023-01-29T20:57:09.638Z,13.43
2023-01-29T21:02:13.653Z,10.60
2023-01-29T21:07:16.534Z,11.55
2023-01-29T21:12:19.128Z,10.25
2023-01-29T21:17:21.789Z,11.35
2023-01-29T21:22:24.489Z,12.95
2023-01-29T21:27:27.358Z,12.80
2023-01-29T21:32:29.989Z,11.20
2023-01-29T21:37:36.966Z,10.60
2023-01-29T21:43:01.541Z,10.10
2023-01-29T21:48:04.894Z,9.60
2023-01-29T21:53:07.817Z,10.93
2023-01-29T21:58:12.313Z,10.38
2023-01-29T22:03:16.685Z,10.52
2023-01-29T22:08:20.605Z,10.57
2023-01-29T22:13:23.628Z,8.98
2023-01-29T22:18:26.990Z,10.02
2023-01-29T22:23:33.659Z,9.75
2023-01-29T22:28:36.222Z,8.35
2023-01-29T22:33:38.981Z,8.82
2023-01-29T22:38:43.420Z,11.02
2023-01-29T22:43:46.035Z,13.63
2023-01-29T22:48:48.596Z,12.43
2023-01-29T22:53:54.806Z,9.50
2023-01-29T22:59:00.229Z,10.68
2023-01-29T23:04:03.349Z,10.55
2023-01-29T23:09:07.503Z,9.57
2023-01-29T23:14:10.461Z,12.13
2023-01-29T23:19:15.576Z,10.75
2023-01-29T23:24:19.170Z,11.20
2023-01-29T23:29:23.323Z,10.75
2023-01-29T23:34:29.942Z,11.55
2023-01-29T23:39:35.894Z,9.95
2023-01-29T23:44:40.670Z,11.15
2023-01-29T23:49:43.757Z,11.45
2023-01-29T23:54:46.634Z,11.60
2023-01-29T23:59:49.899Z,11.55
